createdAt,value
2023-04-11T00:01:32.393Z,16.01
2023-04-11T00:06:35.349Z,15.57
2023-04-11T00:11:38.095Z,16.07
2023-04-11T00:16:42.601Z,15.39
2023-04-11T00:21:45.401Z,15.66
2023-04-11T00:26:48.148Z,16.18
2023-04-11T00:31:52.805Z,16.12
2023-04-11T00:36:56.280Z,15.89
2023-04-11T00:42:07.797Z,15.21
2023-04-11T00:47:12.415Z,15.78
2023-04-11T00:52:15.217Z,15.75
2023-04-11T00:57:18.593Z,15.72
2023-04-11T01:02:24.929Z,15.47
2023-04-11T01:07:32.079Z,15.30
2023-04-11T01:12:36.419Z,15.61
2023-04-11T01:17:41.754Z,15.27
2023-04-11T01:22:47.186Z,15.22
2023-04-11T01:27:52.269Z,15.61
2023-04-11T01:32:55.101Z,14.87
2023-04-11T01:37:58.428Z,15.35
2023-04-11T01:43:03.111Z,15.76
2023-04-11T01:48:07.271Z,15.45
2023-04-11T01:53:10.120Z,14.42
2023-04-11T01:58:14.311Z,15.34
2023-04-11T02:03:17.579Z,15.19
2023-04-11T02:08:20.458Z,14.94
2023-04-11T02:13:25.195Z,14.12
2023-04-11T02:18:27.928Z,14.36
2023-04-11T02:23:31.515Z,15.13
2023-04-11T02:28:36.593Z,14.95
2023-04-11T02:33:39.454Z,14.65
2023-04-11T02:38:42.599Z,14.65
2023-04-11T02:43:47.108Z,14.59
2023-04-11T02:48:50.227Z,14.94
2023-04-11T02:53:53.278Z,14.52
2023-04-11T02:58:58.571Z,14.20
2023-04-11T03:04:03.213Z,13.48
2023-04-11T03:09:17.159Z,13.61
2023-04-11T03:14:21.574Z,13.54
2023-04-11T03:19:24.412Z,13.53
2023-04-11T03:24:27.779Z,13.30
2023-04-11T03:29:33.531Z,13.93
2023-04-11T03:34:46.928Z,13.64
2023-04-11T03:39:50.562Z,13.13
2023-04-11T03:44:55.309Z,12.84
2023-04-11T03:50:01.223Z,12.34
2023-04-11T03:55:06.527Z,12.52
2023-04-11T04:00:12.687Z,12.80
2023-04-11T04:05:27.653Z,13.30
2023-04-11T04:10:31.038Z,12.59
2023-04-11T04:15:37.033Z,13.03
2023-04-11T04:20:39.903Z,13.14
2023-04-11T04:25:45.592Z,12.52
2023-04-11T04:30:54.097Z,12.76
2023-04-11T04:36:00.181Z,12.44
2023-04-11T04:41:15.607Z,12.37
2023-04-11T04:46:25.229Z,12.55
2023-04-11T04:51:30.580Z,12.38
2023-04-11T04:56:33.711Z,11.56
2023-04-11T05:01:39.934Z,12.22
2023-04-11T05:06:44.698Z,12.02
2023-04-11T05:11:51.461Z,12.26
2023-04-11T05:16:59.399Z,12.14
2023-04-11T05:22:06.047Z,13.24
2023-04-11T05:27:14.424Z,12.19
2023-04-11T05:32:19.917Z,12.00
2023-04-11T05:37:43.215Z,11.86
2023-04-11T05:42:46.897Z,12.74
2023-04-11T05:47:51.638Z,12.64
2023-04-11T05:52:56.778Z,12.84
2023-04-11T05:57:59.758Z,13.07
2023-04-11T06:03:03.996Z,13.33
2023-04-11T06:08:08.798Z,13.23
2023-04-11T06:13:11.739Z,12.73
2023-04-11T06:18:16.157Z,13.10
2023-04-11T06:23:18.931Z,13.50
2023-04-11T06:28:21.976Z,13.93
2023-04-11T06:33:26.218Z,13.76
2023-04-11T06:38:28.951Z,13.54
2023-04-11T06:43:32.022Z,13.19
2023-04-11T06:48:36.253Z,14.06
2023-04-11T06:53:39.021Z,13.64
2023-04-11T06:58:41.821Z,14.24
2023-04-11T07:03:47.317Z,14.16
2023-04-11T07:08:51.120Z,13.84
2023-04-11T07:13:55.959Z,12.89
2023-04-11T07:19:00.468Z,12.79
2023-04-11T07:24:03.936Z,12.80
2023-04-11T07:29:09.149Z,12.99
2023-04-11T07:34:14.730Z,12.04
2023-04-11T07:39:17.595Z,13.42
2023-04-11T07:44:20.510Z,12.81
2023-04-11T07:49:24.661Z,12.99
2023-04-11T07:54:30.567Z,12.61
2023-04-11T07:59:33.787Z,11.93
2023-04-11T08:04:38.520Z,12.13
2023-04-11T08:09:42.685Z,12.40
2023-04-11T08:14:46.666Z,12.06
2023-04-11T08:19:50.979Z,12.14
2023-04-11T08:24:53.698Z,13.30
2023-04-11T08:29:58.286Z,12.49
2023-04-11T08:35:02.962Z,13.60
2023-04-11T08:40:07.715Z,14.09
2023-04-11T08:45:11.559Z,14.24
2023-04-11T08:50:15.736Z,14.37
2023-04-11T08:55:18.653Z,13.73
2023-04-11T09:00:25.305Z,14.59
2023-04-11T09:05:31.064Z,14.39
2023-04-11T09:10:34.136Z,15.73
2023-04-11T09:15:36.939Z,15.39
2023-04-11T09:20:42.081Z,14.92
2023-04-11T09:25:45.685Z,15.28
2023-04-11T09:30:52.444Z,14.99
2023-04-11T09:35:57.725Z,14.25
2023-04-11T09:41:01.337Z,14.19
2023-04-11T09:46:18.627Z,14.72
2023-04-11T09:56:31.598Z,15.26
2023-04-11T10:01:34.587Z,14.01
2023-04-11T10:06:46.590Z,13.86
2023-04-11T10:11:49.689Z,12.98
2023-04-11T10:17:20.069Z,12.98
2023-04-11T10:23:02.359Z,12.40
2023-04-11T10:28:05.616Z,12.91
2023-04-11T10:33:12.325Z,12.97
2023-04-11T10:38:51.164Z,13.14
2023-04-11T10:44:20.709Z,14.11
2023-04-11T10:49:34.879Z,13.63
2023-04-11T10:54:37.726Z,13.17
2023-04-11T11:00:15.851Z,13.17
2023-04-11T11:05:25.671Z,14.19
2023-04-11T11:10:46.270Z,14.08
2023-04-11T11:15:51.104Z,13.53
2023-04-11T11:20:56.291Z,13.79
2023-04-11T11:26:01.063Z,13.97
2023-04-11T11:31:06.171Z,13.06
2023-04-11T11:36:10.534Z,14.02
2023-04-11T11:41:13.360Z,13.14
2023-04-11T11:46:17.832Z,12.68
2023-04-11T11:51:21.261Z,13.98
2023-04-11T11:56:24.475Z,13.77
2023-04-11T12:01:28.796Z,14.14
2023-04-11T12:06:32.745Z,14.46
2023-04-11T12:11:39.812Z,14.38
2023-04-11T12:16:44.054Z,14.11
2023-04-11T12:21:46.917Z,14.22
2023-04-11T12:27:05.530Z,14.33
2023-04-11T12:32:10.844Z,15.22
2023-04-11T12:37:13.627Z,15.42
2023-04-11T12:42:18.677Z,15.70
2023-04-11T12:47:25.221Z,14.77
2023-04-11T12:52:29.243Z,15.17
2023-04-11T12:57:32.181Z,14.05
2023-04-11T13:02:43.105Z,14.13
2023-04-11T13:07:47.629Z,14.47
2023-04-11T13:12:53.242Z,14.83
2023-04-11T13:17:57.491Z,14.51
2023-04-11T13:23:00.341Z,15.10
2023-04-11T13:28:03.075Z,14.03
2023-04-11T13:33:07.195Z,14.46
2023-04-11T13:38:11.170Z,14.99
2023-04-11T13:43:17.039Z,15.31
2023-04-11T13:48:21.366Z,14.76
2023-04-11T13:53:24.648Z,12.91
2023-04-11T13:58:27.488Z,11.90
2023-04-11T14:03:33.873Z,12.81
2023-04-11T14:08:37.404Z,12.92
2023-04-11T14:13:40.404Z,11.90
2023-04-11T14:18:44.660Z,12.14
2023-04-11T14:23:47.530Z,13.32
2023-04-11T14:28:50.315Z,13.47
2023-04-11T14:33:54.661Z,13.89
2023-04-11T14:38:57.667Z,14.22
2023-04-11T14:44:00.473Z,14.50
2023-04-11T14:49:04.743Z,14.62
2023-04-11T14:54:07.480Z,13.52
2023-04-11T14:59:11.438Z,12.58
2023-04-11T15:04:15.680Z,12.88
2023-04-11T15:09:20.115Z,13.33
2023-04-11T15:14:29.098Z,12.22
2023-04-11T15:19:33.692Z,14.04
2023-04-11T15:24:36.438Z,13.99
2023-04-11T15:29:39.434Z,15.32
2023-04-11T15:34:43.812Z,14.53
2023-04-11T15:39:47.084Z,14.49
2023-04-11T15:44:49.871Z,13.93
2023-04-11T15:49:53.963Z,13.06
2023-04-11T15:54:57.995Z,13.29
2023-04-11T16:00:01.239Z,12.19
2023-04-11T16:05:14.122Z,12.35
2023-04-11T16:10:16.991Z,12.57
2023-04-11T16:15:22.717Z,12.34
2023-04-11T16:20:26.929Z,13.01
2023-04-11T16:25:29.840Z,13.85
2023-04-11T16:30:32.554Z,13.32
2023-04-11T16:35:37.135Z,13.41
2023-04-11T16:40:40.998Z,13.45
2023-04-11T16:45:43.898Z,13.45
2023-04-11T16:50:48.366Z,13.50
2023-04-11T16:55:52.623Z,13.63
2023-04-11T17:01:05.142Z,13.38
2023-04-11T17:13:19.981Z,14.07
2023-04-11T17:18:22.984Z,14.25
2023-04-11T17:23:41.261Z,14.50
2023-04-11T17:28:47.640Z,12.96
2023-04-11T17:33:50.819Z,13.22
2023-04-11T17:38:54.898Z,13.55
2023-04-11T17:43:59.669Z,12.88
2023-04-11T17:49:02.945Z,12.52
2023-04-11T17:54:06.416Z,12.75
2023-04-11T17:59:13.272Z,12.72
2023-04-11T18:05:03.777Z,12.41
2023-04-11T18:10:24.643Z,12.80
2023-04-11T18:15:29.022Z,12.60
2023-04-11T18:20:32.316Z,12.37
2023-04-11T18:25:35.259Z,12.11
2023-04-11T18:30:39.699Z,12.24
2023-04-11T18:35:42.692Z,11.71
2023-04-11T18:40:49.488Z,11.77
2023-04-11T18:45:55.370Z,11.82
2023-04-11T18:51:44.805Z,12.01
2023-04-11T18:57:03.581Z,11.78
2023-04-11T22:30:54.072Z,10.41
2023-04-11T22:35:58.445Z,10.61
2023-04-11T22:41:01.418Z,10.59
2023-04-11T22:46:06.833Z,10.58
2023-04-11T22:51:09.629Z,10.40
2023-04-11T22:56:12.493Z,10.34
2023-04-11T23:01:17.492Z,10.34
2023-04-11T23:06:20.391Z,10.23
2023-04-11T23:11:23.963Z,10.31
2023-04-11T23:16:28.313Z,10.06
2023-04-11T23:21:31.206Z,9.96
2023-04-11T23:26:34.073Z,9.83
2023-04-11T23:31:38.257Z,9.91
2023-04-11T23:36:43.350Z,10.07
2023-04-11T23:41:46.312Z,9.77
2023-04-11T23:46:52.562Z,9.60
2023-04-11T23:51:55.619Z,9.84
2023-04-11T23:56:58.515Z,9.73
